createdAt,value
2022-08-17T00:02:25.851Z,99169.31
2022-08-17T00:04:55.129Z,99167.25
2022-08-17T00:07:22.563Z,99154.59
2022-08-17T00:09:49.276Z,99154.59
2022-08-17T00:12:41.653Z,99159.59
2022-08-17T00:15:05.020Z,99147.00
2022-08-17T00:17:31.667Z,99131.03
2022-08-17T00:19:58.340Z,99164.19
2022-08-17T00:22:34.267Z,99170.28
2022-08-17T00:25:07.298Z,99163.03
2022-08-17T00:27:34.657Z,99166.84
2022-08-17T00:30:01.421Z,99167.44
2022-08-17T00:33:22.893Z,99130.97
2022-08-17T00:35:19.212Z,99154.47
2022-08-17T00:37:45.899Z,99157.44
2022-08-17T00:40:15.050Z,99165.22
2022-08-17T00:42:43.310Z,99139.91
2022-08-17T00:45:12.660Z,99152.50
2022-08-17T00:47:40.180Z,99146.31
2022-08-17T00:50:09.861Z,99156.13
2022-08-17T00:52:43.428Z,99136.00
2022-08-17T00:55:11.060Z,99150.88
2022-08-17T00:57:44.933Z,99147.91
2022-08-17T01:00:28.324Z,99143.66
2022-08-17T01:03:02.289Z,99148.13
2022-08-17T01:05:31.421Z,99148.22
2022-08-17T01:08:01.131Z,99123.78
2022-08-17T01:10:58.657Z,99143.16
2022-08-17T01:13:24.787Z,99144.13
2022-08-17T01:15:59.065Z,99104.97
2022-08-17T01:18:27.376Z,99137.16
2022-08-17T01:20:56.120Z,99148.69
2022-08-17T01:23:25.103Z,99145.94
2022-08-17T01:25:54.931Z,99139.19
2022-08-17T01:28:52.581Z,99127.84
2022-08-17T01:31:12.053Z,99148.88
2022-08-17T01:33:38.833Z,99131.53
2022-08-17T01:36:07.236Z,99149.56
2022-08-17T01:38:38.631Z,99144.41
2022-08-17T01:41:12.250Z,99122.09
2022-08-17T01:44:13.643Z,99152.94
2022-08-17T01:46:40.281Z,99156.56
2022-08-17T01:49:10.657Z,99148.88
2022-08-17T01:51:38.104Z,99162.38
2022-08-17T01:54:10.097Z,99154.69
2022-08-17T01:56:41.424Z,99153.06
2022-08-17T01:59:10.001Z,99140.03
2022-08-17T02:01:37.895Z,99156.81
2022-08-17T02:04:06.727Z,99128.84
2022-08-17T02:06:52.642Z,99158.56
2022-08-17T02:09:25.369Z,99129.63
2022-08-17T02:11:55.002Z,99062.44
2022-08-17T02:14:24.034Z,99138.72
2022-08-17T02:16:50.948Z,99170.00
2022-08-17T02:19:17.704Z,99139.81
2022-08-17T02:21:47.692Z,99169.38
2022-08-17T02:24:59.360Z,99163.38
2022-08-17T02:27:13.490Z,99049.06
2022-08-17T02:29:40.153Z,99162.88
2022-08-17T02:32:07.120Z,99130.16
2022-08-17T02:34:33.873Z,99157.91
2022-08-17T02:37:00.530Z,99073.41
2022-08-17T02:39:27.304Z,99132.34
2022-08-17T02:42:03.429Z,99161.09
2022-08-17T02:44:38.763Z,99159.44
2022-08-17T02:47:08.684Z,99155.09
2022-08-17T02:49:54.446Z,99147.28
2022-08-17T02:52:42.430Z,99105.47
2022-08-17T02:55:17.059Z,99167.75
2022-08-17T02:57:44.426Z,99105.91
2022-08-17T03:00:15.758Z,99170.81
2022-08-17T03:02:44.091Z,99166.94
2022-08-17T03:05:13.091Z,99166.75
2022-08-17T03:07:39.848Z,99165.78
2022-08-17T03:10:08.105Z,99174.66
2022-08-17T03:12:38.698Z,99170.16
2022-08-17T03:15:16.140Z,99165.94
2022-08-17T03:17:43.569Z,99162.88
2022-08-17T03:20:11.327Z,99130.25
2022-08-17T03:22:42.811Z,99165.06
2022-08-17T03:25:25.424Z,99140.97
2022-08-17T03:27:52.410Z,99154.94
2022-08-17T03:30:19.394Z,99142.34
2022-08-17T03:32:51.865Z,99168.34
2022-08-17T03:35:21.888Z,99163.34
2022-08-17T03:37:48.638Z,99144.50
2022-08-17T03:40:36.949Z,99139.72
2022-08-17T03:43:14.639Z,99138.19
2022-08-17T03:46:01.922Z,99134.41
2022-08-17T03:48:47.493Z,99136.59
2022-08-17T03:51:38.618Z,99170.28
2022-08-17T03:54:24.242Z,99165.47
2022-08-17T03:57:12.219Z,99170.44
2022-08-17T03:59:39.542Z,99174.06
2022-08-17T04:02:17.324Z,99177.31
2022-08-17T04:04:44.302Z,99136.97
2022-08-17T04:07:11.242Z,99192.19
2022-08-17T04:09:38.012Z,99202.84
2022-08-17T04:12:05.342Z,99213.28
2022-08-17T04:14:37.883Z,99200.63
2022-08-17T04:17:25.899Z,99242.69
2022-08-17T04:19:53.628Z,99173.16
2022-08-17T04:22:32.790Z,99181.66
2022-08-17T04:25:07.447Z,99239.69
2022-08-17T04:27:34.186Z,99229.84
2022-08-17T04:30:01.583Z,99258.31
2022-08-17T04:33:04.252Z,99257.03
2022-08-17T04:35:20.123Z,99266.19
2022-08-17T04:37:47.389Z,99262.22
2022-08-17T04:40:32.787Z,99195.97
2022-08-17T04:43:11.552Z,99220.91
2022-08-17T04:45:40.986Z,99233.38
2022-08-17T04:48:23.593Z,99242.91
2022-08-17T04:51:00.665Z,99215.38
2022-08-17T04:53:27.611Z,99223.00
2022-08-17T04:55:55.189Z,99262.47
2022-08-17T04:58:21.835Z,99271.06
2022-08-17T05:00:48.563Z,99248.75
2022-08-17T05:03:15.287Z,99213.06
2022-08-17T05:05:43.271Z,99238.84
2022-08-17T05:08:09.928Z,99235.91
2022-08-17T05:10:39.109Z,99258.56
2022-08-17T05:13:18.274Z,99250.25
2022-08-17T05:15:48.649Z,99258.19
2022-08-17T05:18:16.587Z,99274.94
2022-08-17T05:20:44.754Z,99204.38
2022-08-17T05:23:15.527Z,99264.44
2022-08-17T05:25:49.736Z,99225.88
2022-08-17T05:28:19.628Z,99227.97
2022-08-17T05:30:51.434Z,99198.34
2022-08-17T05:33:21.744Z,99231.69
2022-08-17T05:35:50.700Z,99251.16
2022-08-17T05:38:20.092Z,99248.22
2022-08-17T05:40:47.439Z,99249.66
2022-08-17T05:43:17.462Z,99222.72
2022-08-17T05:46:03.424Z,99246.03
2022-08-17T05:48:40.470Z,99249.38
2022-08-17T05:51:31.720Z,99256.81
2022-08-17T05:54:26.141Z,99249.25
2022-08-17T05:56:58.681Z,99248.47
2022-08-17T05:59:48.119Z,99246.84
2022-08-17T06:03:12.057Z,99236.66
2022-08-17T06:06:01.389Z,99237.13
2022-08-17T06:08:51.520Z,99251.28
2022-08-17T06:11:38.883Z,99249.66
2022-08-17T06:14:42.308Z,99247.25
2022-08-17T06:17:13.923Z,99204.03
2022-08-17T06:19:54.513Z,99259.66
2022-08-17T06:22:24.741Z,99239.69
2022-08-17T06:24:57.540Z,99241.59
2022-08-17T06:27:42.958Z,99255.63
2022-08-17T06:30:14.627Z,99244.28
2022-08-17T06:32:44.593Z,99247.78
2022-08-17T06:35:14.287Z,99257.22
2022-08-17T06:37:56.145Z,99249.16
2022-08-17T06:40:25.461Z,99250.53
2022-08-17T06:43:06.513Z,99252.63
2022-08-17T06:45:41.184Z,99271.69
2022-08-17T06:48:24.735Z,99269.41
2022-08-17T06:51:00.689Z,99279.63
2022-08-17T06:53:36.434Z,99279.88
2022-08-17T06:56:13.545Z,99265.41
2022-08-17T06:58:43.338Z,99259.56
2022-08-17T07:01:20.647Z,99278.03
2022-08-17T07:04:12.139Z,99257.81
2022-08-17T07:06:42.507Z,99262.13
2022-08-17T07:09:18.081Z,99258.34
2022-08-17T07:11:56.370Z,99254.56
2022-08-17T07:14:39.375Z,99259.59
2022-08-17T07:17:18.328Z,99261.50
2022-08-17T07:19:48.967Z,99270.16
2022-08-17T07:22:30.561Z,99276.44
2022-08-17T07:25:18.617Z,99259.00
2022-08-17T07:27:53.094Z,99279.78
2022-08-17T07:30:21.773Z,99276.28
2022-08-17T07:32:58.352Z,99269.53
2022-08-17T07:35:52.807Z,99266.53
2022-08-17T07:38:26.906Z,99268.38
2022-08-17T07:41:03.596Z,99258.88
2022-08-17T07:43:39.239Z,99256.31
2022-08-17T07:46:50.675Z,99264.03
2022-08-17T07:49:24.509Z,99269.56
2022-08-17T07:51:51.185Z,99276.66
2022-08-17T07:54:33.075Z,99285.13
2022-08-17T07:57:29.482Z,99270.97
2022-08-17T07:59:59.750Z,99265.63
2022-08-17T08:02:41.384Z,99274.03
2022-08-17T08:05:25.054Z,99274.03
2022-08-17T08:08:18.602Z,99291.66
2022-08-17T08:11:01.910Z,99280.22
2022-08-17T08:13:30.181Z,99305.41
2022-08-17T08:16:19.747Z,99296.75
2022-08-17T08:18:55.781Z,99286.13
2022-08-17T08:21:49.139Z,99303.28
2022-08-17T08:24:30.160Z,99286.25
2022-08-17T08:27:00.817Z,99313.78
2022-08-17T08:29:32.640Z,99278.16
2022-08-17T08:32:23.930Z,99304.97
2022-08-17T08:35:01.682Z,99304.31
2022-08-17T08:37:43.626Z,99308.75
2022-08-17T08:40:40.408Z,99286.84
2022-08-17T08:43:47.383Z,99293.19
2022-08-17T08:46:48.337Z,99283.44
2022-08-17T08:49:58.990Z,99301.97
2022-08-17T08:52:37.403Z,99275.63
2022-08-17T08:55:17.939Z,99297.69
2022-08-17T08:57:56.403Z,99305.03
2022-08-17T09:00:25.934Z,99297.44
2022-08-17T09:03:06.200Z,99291.16
2022-08-17T09:05:54.107Z,99288.00
2022-08-17T09:08:20.794Z,99288.00
2022-08-17T09:10:53.590Z,99290.19
2022-08-17T09:13:35.490Z,99290.16
2022-08-17T09:16:15.159Z,99209.53
2022-08-17T09:19:03.101Z,99275.78
2022-08-17T09:21:48.260Z,99286.94
2022-08-17T09:24:27.741Z,99281.59
2022-08-17T09:27:12.063Z,99281.34
2022-08-17T09:29:44.401Z,99271.09
2022-08-17T09:32:23.998Z,99300.56
2022-08-17T09:34:56.400Z,99240.53
2022-08-17T09:37:52.139Z,99275.81
2022-08-17T09:40:25.638Z,99283.41
2022-08-17T09:43:00.736Z,99312.00
2022-08-17T09:45:45.202Z,99308.72
2022-08-17T09:48:28.346Z,99301.53
2022-08-17T09:51:17.828Z,99307.91
2022-08-17T09:53:44.946Z,99307.03
2022-08-17T09:56:35.208Z,99295.84
2022-08-17T09:59:27.425Z,99301.31
2022-08-17T10:02:22.262Z,99315.00
2022-08-17T10:04:51.681Z,99300.53
2022-08-17T10:07:26.036Z,99275.13
2022-08-17T10:10:14.287Z,99293.72
2022-08-17T10:12:59.690Z,99299.00
2022-08-17T10:15:26.465Z,99306.47
2022-08-17T10:18:18.298Z,99309.16
2022-08-17T10:21:13.879Z,99310.44
2022-08-17T10:24:02.566Z,99309.63
2022-08-17T10:26:55.345Z,99306.34
2022-08-17T10:29:48.932Z,99306.34
2022-08-17T10:32:35.005Z,99294.44
2022-08-17T10:35:29.389Z,99310.25
2022-08-17T10:38:19.551Z,99312.31
2022-08-17T10:41:00.020Z,99333.84
2022-08-17T10:44:02.189Z,99322.53
2022-08-17T10:46:52.138Z,99355.94
2022-08-17T10:49:18.852Z,99366.13
2022-08-17T10:51:47.984Z,99366.13
2022-08-17T10:54:36.173Z,99369.09
2022-08-17T10:57:03.461Z,99380.47
2022-08-17T10:59:36.089Z,99398.88
2022-08-17T11:02:18.273Z,99404.75
2022-08-17T11:05:12.297Z,99421.69
2022-08-17T11:07:52.793Z,99437.94
2022-08-17T11:10:25.467Z,99449.38
2022-08-17T11:13:11.031Z,99457.25
2022-08-17T11:15:59.407Z,99464.06
2022-08-17T11:19:10.786Z,99454.34
2022-08-17T11:21:43.135Z,99446.19
2022-08-17T11:24:40.437Z,99411.97
2022-08-17T11:27:29.721Z,99433.59
2022-08-17T11:30:02.883Z,99420.75
2022-08-17T11:32:54.499Z,99417.63
2022-08-17T11:35:21.754Z,99409.47
2022-08-17T11:38:00.854Z,99414.81
2022-08-17T11:40:52.405Z,99418.78
2022-08-17T11:43:44.273Z,99400.50
2022-08-17T11:46:46.205Z,99414.19
2022-08-17T11:50:11.317Z,99418.13
2022-08-17T11:52:46.738Z,99417.59
2022-08-17T11:55:35.711Z,99430.03
2022-08-17T11:58:27.008Z,99426.06
2022-08-17T12:01:06.069Z,99424.00
2022-08-17T12:03:36.769Z,99397.69
2022-08-17T12:06:17.533Z,99441.19
2022-08-17T12:08:51.699Z,99432.06
2022-08-17T12:11:55.159Z,99429.44
2022-08-17T12:15:05.779Z,99385.75
2022-08-17T12:17:40.637Z,99419.88
2022-08-17T12:20:23.013Z,99408.41
2022-08-17T12:23:18.472Z,99393.09
2022-08-17T12:25:56.658Z,99395.34
2022-08-17T12:28:33.597Z,99389.44
2022-08-17T12:31:08.176Z,99393.91
2022-08-17T12:33:36.817Z,99395.75
2022-08-17T12:36:24.736Z,99390.91
2022-08-17T12:39:00.053Z,99372.47
2022-08-17T12:41:50.355Z,99362.97
2022-08-17T12:44:23.811Z,99360.53
2022-08-17T12:46:55.780Z,99353.06
2022-08-17T12:49:28.890Z,99347.31
2022-08-17T12:52:17.615Z,99340.25
2022-08-17T12:55:01.003Z,99330.19
2022-08-17T12:57:43.066Z,99320.28
2022-08-17T13:00:47.601Z,99309.44
2022-08-17T13:03:24.385Z,99299.28
2022-08-17T13:06:01.149Z,99301.53
2022-08-17T13:08:43.870Z,99283.75
2022-08-17T13:11:22.292Z,99307.53
2022-08-17T13:13:51.878Z,99298.66
2022-08-17T13:16:26.427Z,99299.41
2022-08-17T13:19:08.134Z,99299.06
2022-08-17T13:21:36.658Z,99291.06
2022-08-17T13:24:13.711Z,99290.06
2022-08-17T13:26:45.430Z,99292.25
2022-08-17T13:29:24.043Z,99284.28
2022-08-17T13:32:13.613Z,99294.78
2022-08-17T13:35:12.306Z,99273.16
2022-08-17T13:37:35.357Z,99272.00
2022-08-17T13:40:08.270Z,99273.75
2022-08-17T13:42:53.343Z,99283.31
2022-08-17T13:45:36.470Z,99268.34
2022-08-17T13:48:32.433Z,99261.53
2022-08-17T13:50:59.520Z,99243.13
2022-08-17T13:53:36.181Z,99253.78
2022-08-17T13:56:37.370Z,99251.13
2022-08-17T13:59:07.876Z,99254.75
2022-08-17T14:01:53.593Z,99246.59
2022-08-17T14:04:23.965Z,99250.31
2022-08-17T14:07:00.877Z,99232.81
2022-08-17T14:09:43.464Z,99239.03
2022-08-17T14:12:12.305Z,99229.91
2022-08-17T14:14:39.621Z,99228.31
2022-08-17T14:17:07.943Z,99205.22
2022-08-17T14:19:35.404Z,99213.97
2022-08-17T14:22:02.709Z,99196.53
2022-08-17T14:24:33.536Z,99213.53
2022-08-17T14:27:03.309Z,99209.09
2022-08-17T14:29:31.745Z,99199.94
2022-08-17T14:32:03.126Z,99196.13
2022-08-17T14:34:30.277Z,99182.03
2022-08-17T14:36:57.068Z,99184.31
2022-08-17T14:39:23.768Z,99186.84
2022-08-17T14:41:50.639Z,99183.00
2022-08-17T14:44:17.398Z,99186.78
2022-08-17T14:46:45.262Z,99174.97
2022-08-17T14:49:15.591Z,99192.88
2022-08-17T14:51:43.508Z,99192.22
2022-08-17T14:54:32.616Z,99192.56
2022-08-17T14:57:17.719Z,99193.53
2022-08-17T14:59:47.189Z,99191.84
2022-08-17T15:02:13.883Z,99207.09
2022-08-17T15:04:45.515Z,99187.97
2022-08-17T15:07:12.459Z,99190.00
2022-08-17T15:09:39.149Z,99175.50
2022-08-17T15:12:06.727Z,99194.97
2022-08-17T15:14:35.435Z,99178.97
2022-08-17T15:17:03.684Z,99192.22
2022-08-17T15:19:30.350Z,99202.56
2022-08-17T15:21:57.096Z,99194.47
2022-08-17T15:24:23.774Z,99164.41
2022-08-17T15:26:51.337Z,99193.94
2022-08-17T15:29:18.016Z,99195.00
2022-08-17T15:31:44.716Z,99159.03
2022-08-17T15:34:11.861Z,99187.75
2022-08-17T15:36:47.917Z,99170.28
2022-08-17T15:39:19.703Z,99168.88
2022-08-17T15:41:47.277Z,99158.97
2022-08-17T15:44:32.412Z,99168.31
2022-08-17T15:47:02.075Z,99166.44
2022-08-17T15:49:28.775Z,99130.00
2022-08-17T15:51:55.476Z,99149.28
2022-08-17T15:54:23.419Z,99144.97
2022-08-17T15:56:50.944Z,99153.97
2022-08-17T15:59:17.771Z,99153.97
2022-08-17T16:03:14.560Z,99157.44
2022-08-17T16:04:31.777Z,99164.19
2022-08-17T16:07:00.210Z,99162.47
2022-08-17T16:09:27.551Z,99175.66
2022-08-17T16:11:55.901Z,99123.53
2022-08-17T16:14:24.604Z,99182.47
2022-08-17T16:16:59.189Z,99181.97
2022-08-17T16:19:25.823Z,99170.75
2022-08-17T16:21:52.537Z,99178.16
2022-08-17T16:24:19.166Z,99169.34
2022-08-17T16:26:45.852Z,99170.78
2022-08-17T16:29:12.517Z,99166.19
2022-08-17T16:31:39.311Z,99171.47
2022-08-17T16:34:16.753Z,99152.66
2022-08-17T16:36:55.583Z,99175.00
2022-08-17T16:39:28.959Z,99152.03
2022-08-17T16:41:57.438Z,99175.16
2022-08-17T16:44:25.642Z,99141.72
2022-08-17T16:46:52.407Z,99154.25
2022-08-17T16:49:24.395Z,99127.09
2022-08-17T16:52:04.019Z,99169.00
2022-08-17T16:54:30.743Z,99172.66
2022-08-17T16:56:57.446Z,99174.94
2022-08-17T16:59:31.195Z,99113.09
2022-08-17T17:02:32.063Z,99172.66
2022-08-17T17:05:29.738Z,99170.91
2022-08-17T17:08:14.348Z,99173.59
2022-08-17T17:10:50.057Z,99089.50
2022-08-17T17:13:47.030Z,99172.44
2022-08-17T17:16:29.195Z,99161.78
2022-08-17T17:19:08.203Z,99159.81
2022-08-17T17:21:45.881Z,99171.97
2022-08-17T17:24:18.512Z,99158.19
2022-08-17T17:27:07.548Z,99150.81
2022-08-17T17:29:59.404Z,99153.19
2022-08-17T17:32:26.044Z,99145.97
2022-08-17T17:35:01.115Z,99150.72
2022-08-17T17:37:33.818Z,99155.91
2022-08-17T17:40:06.635Z,99132.22
2022-08-17T17:42:40.616Z,99144.69
2022-08-17T17:45:26.547Z,99123.81
2022-08-17T17:47:53.523Z,99137.47
2022-08-17T17:50:31.928Z,99132.28
2022-08-17T17:53:04.096Z,99137.97
2022-08-17T17:56:19.628Z,99140.44
2022-08-17T17:59:12.810Z,99086.44
2022-08-17T18:01:54.326Z,99141.97
2022-08-17T18:04:50.767Z,99146.09
2022-08-17T18:07:42.185Z,99125.16
2022-08-17T18:10:19.512Z,99105.53
2022-08-17T18:13:16.776Z,99139.84
2022-08-17T18:15:53.989Z,99151.22
2022-08-17T18:18:37.808Z,99155.69
2022-08-17T18:21:16.115Z,99160.78
2022-08-17T18:23:56.921Z,99150.59
2022-08-17T18:26:33.156Z,99154.31
2022-08-17T18:29:02.464Z,99154.91
2022-08-17T18:31:29.591Z,99157.94
2022-08-17T18:34:43.702Z,99095.47
2022-08-17T18:37:09.080Z,99165.53
2022-08-17T18:39:37.214Z,99146.69
2022-08-17T18:42:06.788Z,99159.38
2022-08-17T18:44:39.781Z,99164.09
2022-08-17T18:47:12.131Z,99161.44
2022-08-17T18:49:39.660Z,99169.75
2022-08-17T18:52:35.882Z,99157.25
2022-08-17T18:55:05.543Z,99167.41
2022-08-17T18:57:46.644Z,99182.91
2022-08-17T19:00:40.937Z,99178.97
2022-08-17T19:03:17.968Z,99175.41
2022-08-17T19:05:51.673Z,99180.53
2022-08-17T19:08:30.468Z,99180.75
2022-08-17T19:11:23.882Z,99185.34
2022-08-17T19:14:02.866Z,99189.25
2022-08-17T19:16:46.248Z,99194.03
2022-08-17T19:19:19.543Z,99186.91
2022-08-17T19:22:00.238Z,99190.19
2022-08-17T19:24:31.398Z,99192.31
2022-08-17T19:27:17.894Z,99179.13
2022-08-17T19:30:07.787Z,99181.84
2022-08-17T19:32:35.708Z,99172.50
2022-08-17T19:35:05.847Z,99169.50
2022-08-17T19:37:41.484Z,99197.28
2022-08-17T19:40:52.228Z,99192.44
2022-08-17T19:43:51.226Z,99193.03
2022-08-17T19:46:17.856Z,99199.81
2022-08-17T19:49:04.143Z,99201.53
2022-08-17T19:51:30.846Z,99202.66
2022-08-17T19:54:15.935Z,99197.78
2022-08-17T19:56:55.366Z,99196.13
2022-08-17T19:59:46.131Z,99203.72
2022-08-17T20:02:36.959Z,99200.03
2022-08-17T20:05:15.729Z,99201.84
2022-08-17T20:07:52.543Z,99199.78
2022-08-17T20:10:45.085Z,99199.25
2022-08-17T20:13:33.575Z,99183.91
2022-08-17T20:16:01.620Z,99198.25
2022-08-17T20:18:34.156Z,99196.59
2022-08-17T20:21:20.348Z,99191.53
2022-08-17T20:23:59.524Z,99203.91
2022-08-17T20:26:44.424Z,99200.94
2022-08-17T20:29:37.182Z,99197.72
2022-08-17T20:32:33.021Z,99204.25
2022-08-17T20:35:05.816Z,99176.50
2022-08-17T20:37:35.126Z,99204.56
2022-08-17T20:40:05.681Z,99193.53
2022-08-17T20:42:34.408Z,99204.66
2022-08-17T20:45:21.521Z,99135.19
2022-08-17T20:48:18.615Z,99198.53
2022-08-17T20:50:46.874Z,99208.00
2022-08-17T20:53:53.347Z,99219.38
2022-08-17T20:56:44.729Z,99225.63
2022-08-17T20:59:20.602Z,99222.94
2022-08-17T21:02:02.697Z,99231.88
2022-08-17T21:04:56.402Z,99135.63
2022-08-17T21:07:42.716Z,99231.28
2022-08-17T21:10:33.920Z,99234.81
2022-08-17T21:13:23.505Z,99242.59
2022-08-17T21:16:28.238Z,99244.53
2022-08-17T21:19:08.472Z,99253.72
2022-08-17T21:21:48.992Z,99262.94
2022-08-17T21:24:58.375Z,99260.22
2022-08-17T21:27:34.146Z,99269.41
2022-08-17T21:30:09.011Z,99265.63
2022-08-17T21:32:40.492Z,99264.78
2022-08-17T21:35:28.447Z,99283.44
2022-08-17T21:38:04.294Z,99271.28
2022-08-17T21:40:32.901Z,99265.06
2022-08-17T21:43:16.877Z,99272.91
2022-08-17T21:45:53.741Z,99277.47
2022-08-17T21:48:24.451Z,99246.97
2022-08-17T21:51:26.091Z,99277.97
2022-08-17T21:53:56.376Z,99284.72
2022-08-17T21:56:34.971Z,99287.13
2022-08-17T21:59:07.895Z,99279.88
2022-08-17T22:01:39.270Z,99298.53
2022-08-17T22:04:12.208Z,99295.31
2022-08-17T22:06:56.452Z,99276.94
2022-08-17T22:09:32.023Z,99293.41
2022-08-17T22:12:16.640Z,99289.91
2022-08-17T22:14:52.246Z,99291.78
2022-08-17T22:17:22.366Z,99275.06
2022-08-17T22:19:59.555Z,99301.22
2022-08-17T22:22:29.247Z,99291.78
2022-08-17T22:25:04.095Z,99302.81
2022-08-17T22:27:54.905Z,99310.38
2022-08-17T22:31:02.160Z,99309.56
2022-08-17T22:33:34.440Z,99299.28
2022-08-17T22:36:29.695Z,99303.84
2022-08-17T22:39:08.701Z,99299.28
2022-08-17T22:41:39.117Z,99308.44
2022-08-17T22:44:20.738Z,99271.47
2022-08-17T22:46:53.132Z,99303.88
2022-08-17T22:49:53.804Z,99270.03
2022-08-17T22:52:32.250Z,99323.16
2022-08-17T22:55:23.537Z,99334.97
2022-08-17T22:58:09.279Z,99386.22
2022-08-17T23:00:38.732Z,99394.94
2022-08-17T23:03:09.145Z,99398.75
2022-08-17T23:05:37.727Z,99389.84
2022-08-17T23:08:04.483Z,99409.59
2022-08-17T23:10:31.851Z,99394.97
2022-08-17T23:13:00.244Z,99419.03
2022-08-17T23:15:33.097Z,99413.41
2022-08-17T23:18:04.550Z,99392.88
2022-08-17T23:20:36.656Z,99438.03
2022-08-17T23:23:07.642Z,99417.25
2022-08-17T23:25:35.722Z,99441.06
2022-08-17T23:28:05.645Z,99454.56
2022-08-17T23:30:35.904Z,99441.34
2022-08-17T23:33:07.388Z,99448.41
2022-08-17T23:35:39.784Z,99441.63
2022-08-17T23:38:09.849Z,99431.66
2022-08-17T23:40:37.794Z,99432.44
2022-08-17T23:43:11.491Z,99406.50
2022-08-17T23:45:50.434Z,99420.84
2022-08-17T23:48:18.166Z,99398.66
2022-08-17T23:51:05.788Z,99401.38
2022-08-17T23:53:36.192Z,99419.22
2022-08-17T23:56:09.386Z,99385.44
2022-08-17T23:58:38.376Z,99389.75
